Santana do Acarau, Brazil
Current Conditions -  °F | °C
As of 6:00 PM on Sunday 23 Nov 2014 (Local Time) from SBPB Reporting Station
Clear Clear  
Wind Chill: 82°   Ceiling: Unl
Heat Index: 88°   Visibility: 6mi
Dew Point: 73°   Wind: 17mph
Humidity: 74%   Direction: 70°ENE
Pressure: 29.83"   Gusts: NA
Location:  3.46°S, 40.21°W
Report Text: SBPB 232100Z 07015KT CAVOK 28/23 Q1010
Loading
Personal Weather Stations






























Interactive Weather Map New forecast layout! Learn more

10-Day Weather Forecast

Advertisements
Track Severe Weather on mobile